createdAt,value
2022-10-05T00:01:34.568Z,2.30
2022-10-05T00:04:18.660Z,1.90
2022-10-05T00:06:56.163Z,2.20
2022-10-05T00:09:24.692Z,2.10
2022-10-05T00:11:52.829Z,2.30
2022-10-05T00:14:29.470Z,2.00
2022-10-05T00:16:58.044Z,2.20
2022-10-05T00:19:32.473Z,2.20
2022-10-05T00:22:10.640Z,1.90
2022-10-05T00:24:38.822Z,2.00
2022-10-05T00:27:22.118Z,1.90
2022-10-05T00:29:53.356Z,2.00
2022-10-05T00:32:21.492Z,1.80
2022-10-05T00:34:50.225Z,1.90
2022-10-05T00:37:18.506Z,2.20
2022-10-05T00:39:47.189Z,1.90
2022-10-05T00:42:53.455Z,1.90
2022-10-05T00:45:32.259Z,2.00
2022-10-05T00:48:20.320Z,2.00
2022-10-05T00:51:07.951Z,1.90
2022-10-05T00:53:52.625Z,1.90
2022-10-05T00:56:48.764Z,1.90
2022-10-05T00:59:51.106Z,2.00
2022-10-05T01:02:35.870Z,2.00
2022-10-05T01:05:20.613Z,2.00
2022-10-05T01:07:51.589Z,2.10
2022-10-05T01:10:36.044Z,1.90
2022-10-05T01:13:23.520Z,2.00
2022-10-05T01:15:58.981Z,1.30
2022-10-05T01:18:53.071Z,1.70
2022-10-05T01:21:26.527Z,2.20
2022-10-05T01:24:35.474Z,1.80
2022-10-05T01:27:12.915Z,2.00
2022-10-05T01:32:26.172Z,2.10
2022-10-05T01:35:13.394Z,2.00
2022-10-05T01:37:41.451Z,2.00
2022-10-05T01:40:32.050Z,2.50
2022-10-05T01:43:19.476Z,2.30
2022-10-05T01:46:14.911Z,1.80
2022-10-05T01:48:49.414Z,1.70
2022-10-05T01:51:29.582Z,2.20
2022-10-05T01:54:01.954Z,2.40
2022-10-05T01:57:17.118Z,2.80
2022-10-05T02:00:10.009Z,5.30
2022-10-05T02:02:50.128Z,15.00
2022-10-05T02:05:39.373Z,6.30
2022-10-05T02:08:17.502Z,7.70
2022-10-05T02:11:08.420Z,8.20
2022-10-05T02:14:01.824Z,7.70
2022-10-05T02:16:39.002Z,5.00
2022-10-05T02:19:31.504Z,4.80
2022-10-05T02:22:12.990Z,5.40
2022-10-05T02:24:57.595Z,5.00
2022-10-05T02:27:35.554Z,4.20
2022-10-05T02:30:07.233Z,4.30
2022-10-05T02:32:45.010Z,2.80
2022-10-05T02:35:16.973Z,2.40
2022-10-05T02:38:00.993Z,2.40
2022-10-05T02:41:01.452Z,2.20
2022-10-05T02:43:53.694Z,2.30
2022-10-05T02:46:41.880Z,2.10
2022-10-05T02:49:17.584Z,1.90
2022-10-05T02:51:51.799Z,2.00
2022-10-05T02:54:42.671Z,2.10
2022-10-05T02:57:23.732Z,2.00
2022-10-05T03:00:04.826Z,2.00
2022-10-05T03:02:52.491Z,2.10
2022-10-05T03:05:24.103Z,2.00
2022-10-05T03:08:02.575Z,2.00
2022-10-05T03:11:00.701Z,1.80
2022-10-05T03:13:40.689Z,2.20
2022-10-05T03:16:29.589Z,1.90
2022-10-05T03:19:13.595Z,2.00
2022-10-05T03:22:01.841Z,2.10
2022-10-05T03:24:43.633Z,2.20
2022-10-05T03:27:22.766Z,1.80
2022-10-05T03:30:18.384Z,1.70
2022-10-05T03:33:16.254Z,2.00
2022-10-05T03:36:15.936Z,2.00
2022-10-05T03:41:22.248Z,2.60
2022-10-05T03:44:14.038Z,2.20
2022-10-05T03:47:10.836Z,2.00
2022-10-05T03:49:48.501Z,2.70
2022-10-05T03:52:26.014Z,2.80
2022-10-05T03:55:03.403Z,2.70
2022-10-05T03:57:38.953Z,2.20
2022-10-05T04:00:16.595Z,2.90
2022-10-05T04:02:55.458Z,2.90
2022-10-05T04:05:28.458Z,2.10
2022-10-05T04:07:56.941Z,2.30
2022-10-05T04:10:36.583Z,2.40
2022-10-05T04:13:13.052Z,2.40
2022-10-05T04:15:52.637Z,2.40
2022-10-05T04:18:27.935Z,2.90
2022-10-05T04:21:01.602Z,2.60
2022-10-05T04:23:32.681Z,2.80
2022-10-05T04:26:09.265Z,2.60
2022-10-05T04:28:52.482Z,2.50
2022-10-05T04:31:45.483Z,2.40
2022-10-05T04:34:41.072Z,2.60
2022-10-05T04:37:19.366Z,2.30
2022-10-05T04:40:09.408Z,2.60
2022-10-05T04:42:59.849Z,2.20
2022-10-05T04:46:09.598Z,1.90
2022-10-05T04:49:28.776Z,2.30
2022-10-05T04:52:14.061Z,2.20
2022-10-05T04:55:11.099Z,2.30
2022-10-05T04:57:51.458Z,2.60
2022-10-05T05:00:27.110Z,2.70
2022-10-05T05:03:15.765Z,2.40
2022-10-05T05:06:16.340Z,2.20
2022-10-05T05:09:13.352Z,2.50
2022-10-05T05:11:50.949Z,2.40
2022-10-05T05:14:22.187Z,2.40
2022-10-05T05:17:32.139Z,2.60
2022-10-05T05:20:03.693Z,2.60
2022-10-05T05:23:01.564Z,2.00
2022-10-05T05:25:56.362Z,1.90
2022-10-05T05:29:02.628Z,2.00
2022-10-05T05:31:46.168Z,2.00
2022-10-05T05:35:00.422Z,2.00
2022-10-05T05:37:39.756Z,2.20
2022-10-05T05:40:26.178Z,2.10
2022-10-05T05:43:00.479Z,2.70
2022-10-05T05:45:44.286Z,2.30
2022-10-05T05:48:37.581Z,2.10
2022-10-05T05:51:18.986Z,2.80
2022-10-05T05:54:10.657Z,7.40
2022-10-05T05:56:44.191Z,6.20
2022-10-05T05:59:23.221Z,4.70
2022-10-05T06:01:58.835Z,4.70
2022-10-05T06:04:42.121Z,4.30
2022-10-05T06:07:18.981Z,3.80
2022-10-05T06:10:04.267Z,3.30
2022-10-05T06:12:44.312Z,3.20
2022-10-05T06:15:32.856Z,3.00
2022-10-05T06:18:11.833Z,3.20
2022-10-05T06:20:45.637Z,3.20
2022-10-05T06:23:29.656Z,3.20
2022-10-05T06:26:22.691Z,3.00
2022-10-05T06:28:58.341Z,3.00
2022-10-05T06:31:49.662Z,3.00
2022-10-05T06:34:38.623Z,3.10
2022-10-05T06:37:20.363Z,2.90
2022-10-05T06:40:23.820Z,2.90
2022-10-05T06:43:03.260Z,2.90
2022-10-05T06:45:57.067Z,2.90
2022-10-05T06:48:41.089Z,2.60
2022-10-05T06:51:31.676Z,2.10
2022-10-05T06:54:43.575Z,2.30
2022-10-05T06:57:38.233Z,2.20
2022-10-05T07:00:18.415Z,2.20
2022-10-05T07:03:05.853Z,2.60
2022-10-05T07:05:47.291Z,2.60
2022-10-05T07:09:02.515Z,2.50
2022-10-05T07:11:31.681Z,2.80
2022-10-05T07:14:15.351Z,2.50
2022-10-05T07:16:52.896Z,2.50
2022-10-05T07:19:48.100Z,2.40
2022-10-05T07:22:46.638Z,2.20
2022-10-05T07:25:32.058Z,2.20
2022-10-05T07:28:06.871Z,2.20
2022-10-05T07:30:48.453Z,2.40
2022-10-05T07:33:51.579Z,2.40
2022-10-05T07:36:55.437Z,2.60
2022-10-05T07:39:59.252Z,2.40
2022-10-05T07:42:51.462Z,2.30
2022-10-05T07:45:46.855Z,2.60
2022-10-05T07:48:22.760Z,2.30
2022-10-05T07:51:00.167Z,2.20
2022-10-05T07:53:43.004Z,2.10
2022-10-05T07:56:23.677Z,2.00
2022-10-05T07:59:01.778Z,2.10
2022-10-05T08:01:34.670Z,2.30
2022-10-05T08:04:41.914Z,2.20
2022-10-05T08:10:23.054Z,2.50
2022-10-05T08:13:16.890Z,2.60
2022-10-05T08:15:50.541Z,2.20
2022-10-05T08:18:38.230Z,2.40
2022-10-05T08:21:12.110Z,2.60
2022-10-05T08:24:07.288Z,2.30
2022-10-05T08:27:02.856Z,2.40
2022-10-05T08:29:50.340Z,2.20
2022-10-05T08:32:21.231Z,2.30
2022-10-05T08:34:54.851Z,2.20
2022-10-05T08:37:32.346Z,2.10
2022-10-05T08:40:28.969Z,2.60
2022-10-05T08:43:23.725Z,2.50
2022-10-05T08:46:24.207Z,2.40
2022-10-05T08:48:56.479Z,2.20
2022-10-05T08:51:57.613Z,2.40
2022-10-05T08:54:46.988Z,2.40
2022-10-05T08:57:46.694Z,2.40
2022-10-05T09:00:21.568Z,2.50
2022-10-05T09:03:23.722Z,2.70
2022-10-05T09:06:26.973Z,2.20
2022-10-05T09:09:12.524Z,2.10
2022-10-05T09:12:29.154Z,2.40
2022-10-05T09:15:25.474Z,2.40
2022-10-05T09:18:13.375Z,2.20
2022-10-05T09:21:08.988Z,2.20
2022-10-05T09:23:46.511Z,2.10
2022-10-05T09:26:44.219Z,2.10
2022-10-05T09:29:49.549Z,2.40
2022-10-05T09:33:08.543Z,2.40
2022-10-05T09:35:51.742Z,2.20
2022-10-05T09:38:57.320Z,2.00
2022-10-05T09:41:37.679Z,2.20
2022-10-05T09:44:29.209Z,2.00
2022-10-05T09:47:22.547Z,2.20
2022-10-05T09:49:59.343Z,2.30
2022-10-05T09:52:55.983Z,2.40
2022-10-05T09:55:31.430Z,2.10
2022-10-05T09:58:28.286Z,2.00
2022-10-05T10:01:29.018Z,1.90
2022-10-05T10:04:38.360Z,1.90
2022-10-05T10:07:36.707Z,1.90
2022-10-05T10:13:21.760Z,1.70
2022-10-05T10:16:25.102Z,1.80
2022-10-05T10:19:26.297Z,1.60
2022-10-05T10:21:59.955Z,2.00
2022-10-05T10:24:40.951Z,1.80
2022-10-05T10:27:12.265Z,1.80
2022-10-05T10:29:43.448Z,1.50
2022-10-05T10:32:37.015Z,1.50
2022-10-05T10:35:08.148Z,1.80
2022-10-05T10:37:58.765Z,1.90
2022-10-05T10:40:38.935Z,2.00
2022-10-05T10:43:07.295Z,1.80
2022-10-05T10:46:06.346Z,1.60
2022-10-05T10:48:48.777Z,1.70
2022-10-05T10:51:32.520Z,2.00
2022-10-05T10:54:39.521Z,1.70
2022-10-05T10:57:17.100Z,1.90
2022-10-05T11:00:14.260Z,1.80
2022-10-05T11:02:53.974Z,1.70
2022-10-05T11:05:52.581Z,1.80
2022-10-05T11:11:42.887Z,1.80
2022-10-05T11:14:46.300Z,1.60
2022-10-05T11:17:39.033Z,1.60
2022-10-05T11:20:40.044Z,1.70
2022-10-05T11:23:39.047Z,1.80
2022-10-05T11:26:38.166Z,1.90
2022-10-05T11:29:17.419Z,1.70
2022-10-05T11:32:13.233Z,1.70
2022-10-05T11:35:16.137Z,1.70
2022-10-05T11:38:06.137Z,1.60
2022-10-05T11:41:05.010Z,1.70
2022-10-05T11:43:57.781Z,1.70
2022-10-05T11:46:57.898Z,1.60
2022-10-05T11:50:16.340Z,1.50
2022-10-05T11:53:30.006Z,1.60
2022-10-05T11:56:14.481Z,1.70
2022-10-05T11:58:58.429Z,1.70
2022-10-05T12:01:38.457Z,1.60
2022-10-05T12:04:25.192Z,1.60
2022-10-05T12:07:11.811Z,1.70
2022-10-05T12:10:11.096Z,1.40
2022-10-05T12:12:51.540Z,1.80
2022-10-05T12:15:59.963Z,1.80
2022-10-05T12:18:39.147Z,2.00
2022-10-05T12:21:12.886Z,2.00
2022-10-05T12:23:52.481Z,1.90
2022-10-05T12:26:20.341Z,1.90
2022-10-05T12:28:58.341Z,1.90
2022-10-05T12:31:41.926Z,2.00
2022-10-05T12:34:19.137Z,1.80
2022-10-05T12:37:26.429Z,2.10
2022-10-05T12:40:16.414Z,1.80
2022-10-05T12:43:15.007Z,1.80
2022-10-05T12:46:20.859Z,1.70
2022-10-05T12:49:14.505Z,2.00
2022-10-05T12:51:54.785Z,1.90
2022-10-05T12:54:46.271Z,1.80
2022-10-05T12:57:40.207Z,1.90
2022-10-05T13:00:19.024Z,1.90
2022-10-05T13:02:59.025Z,1.90
2022-10-05T13:06:04.302Z,1.70
2022-10-05T13:08:46.778Z,2.00
2022-10-05T13:11:28.880Z,2.00
2022-10-05T13:14:08.432Z,2.20
2022-10-05T13:16:55.032Z,2.10
2022-10-05T13:19:35.801Z,1.70
2022-10-05T13:22:22.814Z,1.70
2022-10-05T13:24:59.590Z,1.80
2022-10-05T13:27:32.236Z,2.00
2022-10-05T13:30:05.358Z,2.00
2022-10-05T13:32:41.950Z,2.00
2022-10-05T13:35:31.915Z,1.80
2022-10-05T13:38:24.798Z,1.80
2022-10-05T13:40:53.796Z,1.80
2022-10-05T13:43:24.553Z,2.00
2022-10-05T13:46:09.716Z,1.90
2022-10-05T13:49:19.525Z,2.20
2022-10-05T13:51:53.973Z,2.10
2022-10-05T13:54:38.198Z,2.10
2022-10-05T13:57:21.333Z,2.10
2022-10-05T13:59:49.672Z,2.00
2022-10-05T14:02:22.657Z,1.90
2022-10-05T14:04:58.646Z,1.70
2022-10-05T14:07:50.267Z,2.10
2022-10-05T14:10:43.543Z,1.90
2022-10-05T14:13:48.783Z,2.10
2022-10-05T14:16:20.446Z,1.70
2022-10-05T14:19:04.589Z,1.80
2022-10-05T14:21:47.406Z,1.90
2022-10-05T14:24:43.193Z,1.90
2022-10-05T14:27:29.100Z,1.90
2022-10-05T14:30:03.235Z,1.90
2022-10-05T14:33:03.820Z,1.70
2022-10-05T14:35:49.253Z,1.70
2022-10-05T14:38:29.514Z,1.70
2022-10-05T14:41:17.231Z,1.70
2022-10-05T14:44:02.281Z,1.80
2022-10-05T14:46:32.915Z,1.80
2022-10-05T14:49:23.640Z,2.00
2022-10-05T14:51:53.780Z,2.00
2022-10-05T14:54:27.804Z,1.90
2022-10-05T14:57:13.045Z,1.80
2022-10-05T15:00:04.826Z,1.90
2022-10-05T15:02:38.940Z,2.00
2022-10-05T15:05:31.753Z,2.60
2022-10-05T15:08:21.317Z,2.20
2022-10-05T15:10:57.189Z,2.00
2022-10-05T15:13:31.371Z,2.00
2022-10-05T15:16:18.856Z,2.00
2022-10-05T15:19:12.442Z,2.00
2022-10-05T15:21:46.495Z,2.00
2022-10-05T15:24:26.491Z,2.00
2022-10-05T15:27:01.133Z,2.00
2022-10-05T15:29:58.737Z,1.90
2022-10-05T15:32:34.594Z,1.90
2022-10-05T15:35:36.907Z,1.90
2022-10-05T15:38:12.223Z,1.80
2022-10-05T15:40:46.598Z,2.00
2022-10-05T15:43:24.325Z,1.80
2022-10-05T15:46:14.322Z,1.70
2022-10-05T15:49:00.769Z,2.00
2022-10-05T15:51:45.280Z,1.60
2022-10-05T15:54:44.321Z,1.90
2022-10-05T15:57:43.166Z,1.80
2022-10-05T16:03:18.574Z,1.90
2022-10-05T16:06:36.123Z,2.00
2022-10-05T16:09:24.770Z,1.90
2022-10-05T16:12:20.600Z,2.30
2022-10-05T16:14:48.806Z,2.30
2022-10-05T16:18:10.190Z,2.20
2022-10-05T16:20:55.978Z,3.60
2022-10-05T16:23:43.743Z,3.20
2022-10-05T16:26:35.115Z,3.30
2022-10-05T16:29:05.835Z,3.70
2022-10-05T16:31:59.262Z,3.20
2022-10-05T16:34:46.130Z,3.10
2022-10-05T16:37:28.957Z,3.00
2022-10-05T16:40:43.614Z,3.20
2022-10-05T16:43:30.422Z,2.90
2022-10-05T16:46:13.565Z,3.20
2022-10-05T16:48:51.351Z,3.20
2022-10-05T16:51:24.255Z,3.20
2022-10-05T16:54:18.828Z,3.40
2022-10-05T16:56:59.817Z,3.30
2022-10-05T17:00:04.911Z,3.10
2022-10-05T17:03:05.270Z,3.60
2022-10-05T17:05:38.680Z,3.60
2022-10-05T17:08:15.569Z,3.20
2022-10-05T17:10:58.773Z,3.80
2022-10-05T17:14:10.023Z,4.20
2022-10-05T17:17:06.086Z,4.00
2022-10-05T17:19:40.609Z,4.00
2022-10-05T17:22:29.136Z,3.90
2022-10-05T17:25:22.527Z,3.70
2022-10-05T17:28:19.070Z,3.70
2022-10-05T17:30:54.300Z,4.50
2022-10-05T17:33:30.057Z,4.20
2022-10-05T17:36:08.677Z,3.80
2022-10-05T17:39:12.404Z,4.20
2022-10-05T17:41:40.929Z,4.20
2022-10-05T17:44:21.078Z,3.90
2022-10-05T17:47:00.185Z,4.20
2022-10-05T17:50:13.129Z,3.40
2022-10-05T17:53:02.438Z,3.50
2022-10-05T17:55:44.293Z,3.70
2022-10-05T17:58:27.614Z,3.50
2022-10-05T18:00:59.892Z,3.50
2022-10-05T18:03:51.718Z,4.20
2022-10-05T18:06:25.837Z,4.20
2022-10-05T18:09:21.049Z,3.70
2022-10-05T18:12:16.230Z,3.80
2022-10-05T18:14:56.196Z,4.00
2022-10-05T18:17:47.374Z,3.80
2022-10-05T18:20:24.491Z,3.80
2022-10-05T18:23:23.998Z,3.60
2022-10-05T18:26:01.435Z,3.50
2022-10-05T18:28:53.888Z,3.20
2022-10-05T18:31:30.882Z,3.40
2022-10-05T18:34:20.181Z,3.10
2022-10-05T18:37:21.661Z,2.90
2022-10-05T18:39:52.883Z,3.20
2022-10-05T18:43:02.224Z,2.90
2022-10-05T18:45:43.708Z,3.30
2022-10-05T18:48:44.959Z,3.40
2022-10-05T18:51:33.819Z,3.60
2022-10-05T18:54:28.198Z,3.30
2022-10-05T18:56:56.592Z,3.30
2022-10-05T18:59:41.452Z,3.20
2022-10-05T19:02:24.536Z,3.20
2022-10-05T19:05:46.898Z,3.50
2022-10-05T19:08:28.117Z,3.70
2022-10-05T19:11:15.527Z,3.20
2022-10-05T19:14:22.120Z,3.50
2022-10-05T19:17:06.130Z,3.00
2022-10-05T19:19:55.439Z,4.30
2022-10-05T19:22:31.271Z,3.90
2022-10-05T19:25:21.460Z,4.60
2022-10-05T19:28:18.026Z,4.30
2022-10-05T19:31:21.638Z,3.90
2022-10-05T19:34:28.503Z,4.70
2022-10-05T19:37:14.110Z,4.00
2022-10-05T19:39:54.841Z,4.60
2022-10-05T19:42:29.058Z,4.00
2022-10-05T19:45:24.777Z,4.50
2022-10-05T19:48:28.659Z,4.10
2022-10-05T19:51:03.827Z,3.80
2022-10-05T19:53:51.364Z,4.70
2022-10-05T19:56:22.567Z,4.10
2022-10-05T19:58:56.417Z,3.50
2022-10-05T20:01:41.914Z,4.50
2022-10-05T20:04:10.675Z,4.20
2022-10-05T20:06:39.673Z,4.00
2022-10-05T20:09:21.874Z,3.90
2022-10-05T20:11:55.272Z,3.60
2022-10-05T20:14:31.024Z,4.10
2022-10-05T20:17:43.739Z,4.50
2022-10-05T20:20:36.040Z,3.40
2022-10-05T20:23:23.977Z,4.20
2022-10-05T20:26:11.358Z,3.90
2022-10-05T20:28:40.220Z,3.70
2022-10-05T20:31:08.643Z,3.40
2022-10-05T20:33:36.992Z,3.10
2022-10-05T20:36:05.334Z,3.30
2022-10-05T20:38:40.873Z,3.30
2022-10-05T20:41:09.607Z,2.80
2022-10-05T20:43:39.544Z,3.30
2022-10-05T20:46:08.310Z,3.00
2022-10-05T20:48:36.705Z,3.60
2022-10-05T20:51:07.524Z,3.50
2022-10-05T20:53:35.700Z,3.50
2022-10-05T20:56:06.439Z,4.40
2022-10-05T20:58:37.813Z,4.70
2022-10-05T21:01:23.461Z,4.00
2022-10-05T21:03:51.542Z,4.10
2022-10-05T21:06:32.524Z,5.10
2022-10-05T21:09:00.616Z,4.90
2022-10-05T21:11:28.763Z,4.60
2022-10-05T21:14:03.374Z,5.90
2022-10-05T21:16:38.368Z,5.80
2022-10-05T21:19:12.206Z,5.80
2022-10-05T21:21:46.027Z,5.60
2022-10-05T21:24:15.377Z,5.30
2022-10-05T21:26:45.042Z,5.40
2022-10-05T21:29:13.394Z,4.90
2022-10-05T21:31:42.177Z,5.10
2022-10-05T21:34:10.385Z,4.90
2022-10-05T21:36:38.421Z,5.10
2022-10-05T21:39:06.551Z,4.80
2022-10-05T21:41:34.705Z,5.30
2022-10-05T21:44:02.718Z,5.20
2022-10-05T21:46:31.769Z,5.60
2022-10-05T21:49:00.054Z,5.30
2022-10-05T21:51:31.393Z,5.40
2022-10-05T21:54:03.060Z,5.00
2022-10-05T21:56:35.658Z,5.50
2022-10-05T21:59:06.674Z,4.90
2022-10-05T22:01:36.098Z,4.90
2022-10-05T22:04:05.278Z,4.90
2022-10-05T22:06:34.318Z,4.70
2022-10-05T22:09:03.944Z,4.90
2022-10-05T22:11:35.118Z,4.80
2022-10-05T22:14:06.271Z,4.10
2022-10-05T22:16:38.243Z,4.70
2022-10-05T22:19:14.390Z,4.30
2022-10-05T22:21:43.102Z,4.20
2022-10-05T22:24:14.020Z,4.10
2022-10-05T22:26:52.856Z,4.10
2022-10-05T22:29:21.832Z,5.40
2022-10-05T22:31:55.698Z,4.50
2022-10-05T22:34:24.115Z,4.90
2022-10-05T22:37:01.372Z,4.70
2022-10-05T22:39:29.446Z,5.20
2022-10-05T22:41:58.848Z,4.60
2022-10-05T22:44:26.970Z,4.90
2022-10-05T22:46:54.973Z,4.70
2022-10-05T22:49:23.216Z,4.80
2022-10-05T22:51:51.499Z,5.40
2022-10-05T22:54:19.858Z,5.40
2022-10-05T22:56:47.894Z,5.40
2022-10-05T22:59:16.068Z,5.30
2022-10-05T23:01:44.208Z,5.70
2022-10-05T23:04:12.315Z,4.70
2022-10-05T23:06:40.797Z,5.10
2022-10-05T23:09:08.882Z,5.90
2022-10-05T23:11:36.990Z,5.10
2022-10-05T23:14:07.684Z,4.90
2022-10-05T23:16:36.000Z,4.90
2022-10-05T23:19:04.440Z,5.20
2022-10-05T23:21:42.445Z,5.30
2022-10-05T23:24:10.828Z,5.00
2022-10-05T23:26:39.408Z,4.90
2022-10-05T23:29:07.580Z,4.90
2022-10-05T23:31:37.005Z,4.30
2022-10-05T23:34:05.155Z,4.70
2022-10-05T23:36:33.456Z,4.60
2022-10-05T23:39:01.827Z,4.30
2022-10-05T23:41:32.654Z,4.30
2022-10-05T23:44:00.802Z,4.20
2022-10-05T23:46:29.067Z,3.80
2022-10-05T23:48:57.373Z,3.70
2022-10-05T23:51:25.486Z,4.00
2022-10-05T23:53:55.773Z,4.20
2022-10-05T23:56:24.065Z,3.70
2022-10-05T23:58:52.427Z,3.60
